Terminal Aerodrome Forecast
Issued by NWS

Home | Current Version | Previous Version | Graphics & Text | Print | Product List | Glossary On
Versions: 1 2 3 4 5 6 7 8 9 10 11 12 13 14 15 16 17 18 19 20 21 22
000
FTUS43 KGRB 111626 AAC
TAFMTW
TAF AMD
KMTW 111626Z 1116/1212 18009KT P6SM SCT025 OVC035
      TEMPO 1116/1118 5SM -FZDZSN OVC025
     FM111800 21007KT 6SM -FZDZSN SCT009 OVC015
      TEMPO 1118/1120 OVC009
     FM112000 27006KT P6SM -SHSN OVC012
     FM120000 32014G22KT P6SM BKN035
     FM120200 33020G31KT P6SM SCT035=

USA.gov is the U.S. government's official web portal to all federal, state and local government web resources and services.